Aeroporto :
LOGIN :

Iscrizione | Disclaimer

   EN    FR    IT 

 










Sommario :    VFR   VFR Marginale   IFR   IFR Intensivo   IFR Molto Intensivo
Visibilità : 
Base nubi : 
>= 8 km
>= 3000ft
5 / 8 km
1000 / 3000 ft
1500m / 5 km
500 / 1000 ft
800 / 1500m
200 / 500 ft
< 800m
< 200 ft
Simboli :   Temporali  Nebbia  Neve Forte  Precipitazioni Forti  Vento > 20 kt
SIGMETs :   Varie  Temporali  Ghiacco  Turbolenza  Onda orograficha  Ceneri Vulcaniche






- Altitudine del aeroporto : 523 ft
- Codice IATA : AUF


LFLA - Auxerre

ULTIMO METAR :
  • 131000Z AUTO 22005KT 100V270 9999 BKN028 BKN037 BKN044 20/13 Q1015

METARs OBSOLETI :
  • 130930Z AUTO VRB03KT 9999 FEW024 17/12 Q1015
  • 130900Z AUTO 29005KT 220V360 9999 BKN021 17/12 Q1015
  • 130830Z AUTO 24005KT 130V300 9999 BKN016 16/12 Q1015
  • 130800Z AUTO 26006KT 200V300 9999 OVC014 15/12 Q1015
  • 130730Z AUTO 25007KT 230V290 9999 BKN012 15/12 Q1015
  • 130700Z AUTO 31006KT 230V010 9999 SCT007 BKN013 14/13 Q1015
  • 130630Z AUTO 34006KT 9999 BKN004 13/13 Q1015
  • 130600Z AUTO 36005KT 340V040 9999 FEW006 13/13 Q1015
  • 130530Z AUTO VRB03KT CAVOK 12/12 Q1015

TAF N/A



MetMap, La meteo Aeronautica in un colpo d'occhio ! - Copyright ORBIFLY Dicembre 2007 - Disclaimer

ORBIFLY MET'MAP TEAM :

Programmazione e sviluppo : Alexandra Zaïnal
Concezione : Baudouin d'Aumeries
Supporto tecnico e logistico : Manuel Goepfert
Aiuto : Marc-Olivier Méhu
Aiuto per la traduzione : Arnaldo La Scala




FONTI E CREDITI :

   NOAA